Time;durP1;ratioP1;P1;durP2;ratioP2;P2;SDS_P1;SDS_P2;PMS_P1;PMS_P2;Temp;Humidity;BMP_temperature;BMP_pressure;BME280_temperature;BME280_humidity;BME280_pressure;Samples;Min_cycle;Max_cycle;Signal;HPM_P1;HPM_P2
2024/03/11 00:00:15;;;;;;;;;;;;;;;;;;5071768;28;19974;-74
2024/03/11 00:02:42;;;;;;;;;;;;;;;;;;5069948;28;19950;-74
2024/03/11 00:05:11;;;;;;;;;;;;;;;;;;5071466;28;19936;-75
2024/03/11 00:07:38;;;;;;;;;;;;;;;;;;5070857;28;20358;-75
2024/03/11 00:10:11;;;;;;;;;;;;;;;;;;5071307;28;20395;-73
2024/03/11 00:12:38;;;;;;;;;;;;;;;;;;5070684;28;19951;-73
2024/03/11 00:15:07;;;;;;;;;;;;;;;;;;5070093;28;20347;-73
2024/03/11 00:17:34;;;;;;;;;;;;;;;;;;5069406;28;19924;-75
2024/03/11 00:20:01;;;;;;;;;;;;;;;;;;5069907;28;19980;-74
2024/03/11 00:22:28;;;;;;;;;;;;;;;;;;5072594;28;20444;-74
2024/03/11 00:24:55;;;;;;;;;;;;;;;;;;5071618;28;19932;-73
2024/03/11 00:27:22;;;;;;;;;;;;;;;;;;5081300;28;20433;-73
2024/03/11 00:29:50;;;;;;;;;;;;;;;;;;5069994;28;19935;-73
2024/03/11 00:32:19;;;;;;;;;;;;;;;;;;5071638;28;19928;-73
2024/03/11 00:34:46;;;;;;;;;;;;;;;;;;5070328;28;19982;-74
2024/03/11 00:37:15;;;;;;;;;;;;;;;;;;5080610;28;19960;-74
2024/03/11 00:39:42;;;;;;;;;;;;;;;;;;5079629;28;19932;-74
2024/03/11 00:42:09;;;;;;;;;;;;;;;;;;5070887;28;19932;-74
2024/03/11 00:44:36;;;;;;;;;;;;;;;;;;5069889;28;19951;-72
2024/03/11 00:47:06;;;;;;;;;;;;;;;;;;5065393;28;19929;-74
2024/03/11 00:49:33;;;;;;;;;;;;;;;;;;5068250;28;19978;-74
2024/03/11 00:52:00;;;;;;;;;;;;;;;;;;5070035;28;19928;-73
2024/03/11 00:54:27;;;;;;;;;;;;;;;;;;5068068;28;20414;-73
2024/03/11 00:56:55;;;;;;;;;;;;;;;;;;5070414;28;19932;-74
2024/03/11 00:59:22;;;;;;;;;;;;;;;;;;5069984;28;20346;-74
2024/03/11 01:01:49;;;;;;;;;;;;;;;;;;5059424;28;19932;-74
2024/03/11 01:04:17;;;;;;;;;;;;;;;;;;5068599;28;19998;-74
2024/03/11 01:06:46;;;;;;;;;;;;;;;;;;5069689;28;19932;-73
2024/03/11 01:09:13;;;;;;;;;;;;;;;;;;5064678;28;19928;-73
2024/03/11 01:11:40;;;;;;;;;;;;;;;;;;5069506;28;20468;-74
2024/03/11 01:14:09;;;;;;;;;;;;;;;;;;5069062;28;19968;-73
2024/03/11 01:16:37;;;;;;;;;;;;;;;;;;5070860;28;19928;-72
2024/03/11 01:19:06;;;;;;;;;;;;;;;;;;5070337;28;19971;-74
2024/03/11 01:21:35;;;;;;;;;;;;;;;;;;5069785;28;19951;-73
2024/03/11 01:24:03;;;;;;;;;;;;;;;;;;5070608;28;19928;-74
2024/03/11 01:26:30;;;;;;;;;;;;;;;;;;5070994;28;20304;-75
2024/03/11 01:28:57;;;;;;;;;;;;;;;;;;5064595;28;20005;-75
2024/03/11 01:31:24;;;;;;;;;;;;;;;;;;5071273;28;19933;-73
2024/03/11 01:33:51;;;;;;;;;;;;;;;;;;5074366;28;20431;-74
2024/03/11 01:36:18;;;;;;;;;;;;;;;;;;5073993;28;20107;-74
2024/03/11 01:38:46;;;;;;;;;;;;;;;;;;5074303;28;19935;-72
2024/03/11 01:41:13;;;;;;;;;;;;;;;;;;5074034;28;19929;-73
2024/03/11 01:43:41;;;;;;;;;;;;;;;;;;5081875;28;19932;-73
2024/03/11 01:46:09;;;;;;;;;;;;;;;;;;5073398;28;20012;-75
2024/03/11 01:48:37;;;;;;;;;;;;;;;;;;5074211;28;19928;-75
2024/03/11 01:51:04;;;;;;;;;;;;;;;;;;5073731;28;20456;-77
2024/03/11 01:53:31;;;;;;;;;;;;;;;;;;5080011;28;19928;-76
2024/03/11 01:55:58;;;;;;;;;;;;;;;;;;5074073;28;19974;-76
2024/03/11 01:58:25;;;;;;;;;;;;;;;;;;5074475;28;20037;-76
2024/03/11 02:00:52;;;;;;;;;;;;;;;;;;5073954;28;19955;-76
2024/03/11 02:03:20;;;;;;;;;;;;;;;;;;5074645;28;19932;-75
2024/03/11 02:05:47;;;;;;;;;;;;;;;;;;5075129;28;19928;-76
2024/03/11 02:08:14;;;;;;;;;;;;;;;;;;5077605;28;19973;-77
2024/03/11 02:10:41;;;;;;;;;;;;;;;;;;5080119;28;19974;-75
2024/03/11 02:13:08;;;;;;;;;;;;;;;;;;5074350;28;19924;-76
2024/03/11 02:15:35;;;;;;;;;;;;;;;;;;5081688;28;19982;-76
2024/03/11 02:18:05;;;;;;;;;;;;;;;;;;5074651;28;19972;-75
2024/03/11 02:20:32;;;;;;;;;;;;;;;;;;5069038;28;19966;-76
2024/03/11 02:22:59;;;;;;;;;;;;;;;;;;5074545;28;19936;-75
2024/03/11 02:25:26;;;;;;;;;;;;;;;;;;5075814;28;19935;-77
2024/03/11 02:27:54;;;;;;;;;;;;;;;;;;5080372;28;19934;-76
2024/03/11 02:30:21;;;;;;;;;;;;;;;;;;5071997;28;19928;-75
2024/03/11 02:32:48;;;;;;;;;;;;;;;;;;5073773;28;20458;-75
2024/03/11 02:35:16;;;;;;;;;;;;;;;;;;5073160;28;20368;-76
2024/03/11 02:37:44;;;;;;;;;;;;;;;;;;5072625;28;20015;-76
2024/03/11 02:40:11;;;;;;;;;;;;;;;;;;5073631;28;20036;-76
2024/03/11 02:42:39;;;;;;;;;;;;;;;;;;5081657;28;20276;-76
2024/03/11 02:45:07;;;;;;;;;;;;;;;;;;5064417;28;20067;-76
2024/03/11 02:47:35;;;;;;;;;;;;;;;;;;5078605;28;19928;-76
2024/03/11 02:50:05;;;;;;;;;;;;;;;;;;5073514;28;19929;-76
2024/03/11 02:52:32;;;;;;;;;;;;;;;;;;5072998;28;20380;-76
2024/03/11 02:55:00;;;;;;;;;;;;;;;;;;5064862;28;19929;-74
2024/03/11 02:57:28;;;;;;;;;;;;;;;;;;5067767;28;19935;-75
2024/03/11 02:59:55;;;;;;;;;;;;;;;;;;5073299;28;20350;-76
2024/03/11 03:02:23;;;;;;;;;;;;;;;;;;5071924;28;19932;-77
2024/03/11 03:04:50;;;;;;;;;;;;;;;;;;5073097;28;19935;-76
2024/03/11 03:07:17;;;;;;;;;;;;;;;;;;5072728;28;19929;-75
2024/03/11 03:09:44;;;;;;;;;;;;;;;;;;5072551;28;19929;-77
2024/03/11 03:12:12;;;;;;;;;;;;;;;;;;5068349;28;20001;-76
2024/03/11 03:14:40;;;;;;;;;;;;;;;;;;5074531;28;20465;-76
2024/03/11 03:17:07;;;;;;;;;;;;;;;;;;5074829;28;19935;-76
2024/03/11 03:19:35;;;;;;;;;;;;;;;;;;5072363;28;19935;-76
2024/03/11 03:22:02;;;;;;;;;;;;;;;;;;5071989;28;19975;-77
2024/03/11 03:24:29;;;;;;;;;;;;;;;;;;5072407;28;20447;-75
2024/03/11 03:26:56;;;;;;;;;;;;;;;;;;5073576;28;19951;-76
2024/03/11 03:29:24;;;;;;;;;;;;;;;;;;5081817;28;19982;-76
2024/03/11 03:31:51;;;;;;;;;;;;;;;;;;5071797;28;20299;-76
2024/03/11 03:34:18;;;;;;;;;;;;;;;;;;5071141;28;19958;-75
2024/03/11 03:36:45;;;;;;;;;;;;;;;;;;5072210;28;19981;-75
2024/03/11 03:39:12;;;;;;;;;;;;;;;;;;5071367;28;19935;-75
2024/03/11 03:41:39;;;;;;;;;;;;;;;;;;5071565;28;19959;-77
2024/03/11 03:44:07;;;;;;;;;;;;;;;;;;5076316;28;19928;-76
2024/03/11 03:46:35;;;;;;;;;;;;;;;;;;5072573;28;19963;-76
2024/03/11 03:49:02;;;;;;;;;;;;;;;;;;5072496;28;20018;-75
2024/03/11 03:51:29;;;;;;;;;;;;;;;;;;5071060;28;19928;-77
2024/03/11 03:53:58;;;;;;;;;;;;;;;;;;5071819;28;19929;-75
2024/03/11 03:56:26;;;;;;;;;;;;;;;;;;5063595;28;20416;-76
2024/03/11 03:58:52;;;;;;;;;;;;;;;;;;5071760;28;19982;-76
2024/03/11 04:01:19;;;;;;;;;;;;;;;;;;5071221;28;20315;-76
2024/03/11 04:03:46;;;;;;;;;;;;;;;;;;5071827;28;19924;-76
2024/03/11 04:06:13;;;;;;;;;;;;;;;;;;5083252;28;20005;-77
2024/03/11 04:08:40;;;;;;;;;;;;;;;;;;5071577;28;19937;-76
2024/03/11 04:11:07;;;;;;;;;;;;;;;;;;5071953;28;19928;-75
2024/03/11 04:13:34;;;;;;;;;;;;;;;;;;5072091;28;19932;-76
2024/03/11 04:16:11;;;;;;;;;;;;;;;;;;5078933;27;19928;-74
2024/03/11 04:18:42;;;;;;;;;;;;;;;;;;5053877;27;19940;-73
2024/03/11 04:21:09;;;;;;;;;;;;;;;;;;5065085;27;19925;-74
2024/03/11 04:23:37;;;;;;;;;;;;;;;;;;5065658;27;19998;-72
2024/03/11 04:26:04;;;;;;;;;;;;;;;;;;5063142;27;19929;-75
2024/03/11 04:28:31;;;;;;;;;;;;;;;;;;5064836;27;20478;-73
2024/03/11 04:30:59;;;;;;;;;;;;;;;;;;5064455;27;19929;-73
2024/03/11 04:33:26;;;;;;;;;;;;;;;;;;5063919;27;20012;-75
2024/03/11 04:35:53;;;;;;;;;;;;;;;;;;5064595;27;19968;-74
2024/03/11 04:38:20;;;;;;;;;;;;;;;;;;5063793;27;19936;-74
2024/03/11 04:40:47;;;;;;;;;;;;;;;;;;5064227;27;19929;-73
2024/03/11 04:43:14;;;;;;;;;;;;;;;;;;5063434;27;19928;-74
2024/03/11 04:45:41;;;;;;;;;;;;;;;;;;5059417;27;19933;-74
2024/03/11 04:48:09;;;;;;;;;;;;;;;;;;5054844;27;19989;-74
2024/03/11 04:50:37;;;;;;;;;;;;;;;;;;5057402;27;19952;-75
2024/03/11 04:53:04;;;;;;;;;;;;;;;;;;5058274;27;19940;-73
2024/03/11 04:55:31;;;;;;;;;;;;;;;;;;5052108;27;20430;-74
2024/03/11 04:57:58;;;;;;;;;;;;;;;;;;5099417;27;19989;-74
2024/03/11 05:00:27;;;;;;;;;;;;;;;;;;5059824;27;19933;-75
2024/03/11 05:02:54;;;;;;;;;;;;;;;;;;5054899;27;19979;-73
2024/03/11 05:05:21;;;;;;;;;;;;;;;;;;5063513;27;19933;-73
2024/03/11 05:07:49;;;;;;;;;;;;;;;;;;5102353;27;19931;-73
2024/03/11 05:10:16;;;;;;;;;;;;;;;;;;5074065;27;20009;-74
2024/03/11 05:12:43;;;;;;;;;;;;;;;;;;5063306;27;20054;-73
2024/03/11 05:15:11;;;;;;;;;;;;;;;;;;5060906;27;19929;-73
2024/03/11 05:17:38;;;;;;;;;;;;;;;;;;5054743;27;19989;-73
2024/03/11 05:20:06;;;;;;;;;;;;;;;;;;5061753;27;19936;-73
2024/03/11 05:22:33;;;;;;;;;;;;;;;;;;5058585;27;20369;-76
2024/03/11 05:25:00;;;;;;;;;;;;;;;;;;5047043;27;19932;-75
2024/03/11 05:27:27;;;;;;;;;;;;;;;;;;5042778;27;20322;-76
2024/03/11 05:29:53;;;;;;;;;;;;;;;;;;5030270;27;20448;-76
2024/03/11 05:32:20;;;;;;;;;;;;;;;;;;5036540;27;19936;-74
2024/03/11 05:34:47;;;;;;;;;;;;;;;;;;5036674;27;20441;-73
2024/03/11 05:37:15;;;;;;;;;;;;;;;;;;5046587;27;20011;-74
2024/03/11 05:39:42;;;;;;;;;;;;;;;;;;5048980;27;20407;-74
2024/03/11 05:42:09;;;;;;;;;;;;;;;;;;5035757;27;19928;-74
2024/03/11 05:44:36;;;;;;;;;;;;;;;;;;5041834;27;19989;-74
2024/03/11 05:47:04;;;;;;;;;;;;;;;;;;5050197;27;19931;-74
2024/03/11 05:49:32;;;;;;;;;;;;;;;;;;5035184;27;20323;-75
2024/03/11 05:51:59;;;;;;;;;;;;;;;;;;5039443;27;19929;-74
2024/03/11 05:54:26;;;;;;;;;;;;;;;;;;5039835;27;19990;-74
2024/03/11 05:56:56;;;;;;;;;;;;;;;;;;5041442;27;20315;-74
2024/03/11 05:59:23;;;;;;;;;;;;;;;;;;5045478;27;19929;-75
2024/03/11 06:01:50;;;;;;;;;;;;;;;;;;5033804;27;19929;-75
2024/03/11 06:04:18;;;;;;;;;;;;;;;;;;5039812;27;19954;-74
2024/03/11 06:06:45;;;;;;;;;;;;;;;;;;5045368;27;20360;-73
2024/03/11 06:09:12;;;;;;;;;;;;;;;;;;5048850;27;19933;-74
2024/03/11 06:11:40;;;;;;;;;;;;;;;;;;5036310;27;20357;-74
2024/03/11 06:14:07;;;;;;;;;;;;;;;;;;5042136;27;19933;-75
2024/03/11 06:16:34;;;;;;;;;;;;;;;;;;5049608;27;19929;-76
2024/03/11 06:19:02;;;;;;;;;;;;;;;;;;5036475;27;19975;-77
2024/03/11 06:21:30;;;;;;;;;;;;;;;;;;5038649;27;20015;-76
2024/03/11 06:23:59;;;;;;;;;;;;;;;;;;5043301;27;19929;-76
2024/03/11 06:26:26;;;;;;;;;;;;;;;;;;5041464;27;20354;-77
2024/03/11 06:28:55;;;;;;;;;;;;;;;;;;5037891;27;19929;-77
2024/03/11 06:31:22;;;;;;;;;;;;;;;;;;5044604;27;20372;-74
2024/03/11 06:33:50;;;;;;;;;;;;;;;;;;5038235;27;19925;-75
2024/03/11 06:36:17;;;;;;;;;;;;;;;;;;5051282;27;19956;-77
2024/03/11 06:38:48;;;;;;;;;;;;;;;;;;5069988;27;19981;-77
2024/03/11 06:41:15;;;;;;;;;;;;;;;;;;5050314;27;19928;-77
2024/03/11 06:43:42;;;;;;;;;;;;;;;;;;5051060;27;19994;-76
2024/03/11 06:46:10;;;;;;;;;;;;;;;;;;5066361;27;19936;-76
2024/03/11 06:48:37;;;;;;;;;;;;;;;;;;5031925;27;19935;-76
2024/03/11 06:51:04;;;;;;;;;;;;;;;;;;5033612;27;20402;-77
2024/03/11 06:53:31;;;;;;;;;;;;;;;;;;5045785;27;19980;-76
2024/03/11 06:56:00;;;;;;;;;;;;;;;;;;5035470;27;19929;-76
2024/03/11 06:58:28;;;;;;;;;;;;;;;;;;5030585;27;20021;-77
2024/03/11 07:00:58;;;;;;;;;;;;;;;;;;5028512;27;19930;-77
2024/03/11 07:03:30;;;;;;;;;;;;;;;;;;5029552;28;19968;-76
2024/03/11 07:05:58;;;;;;;;;;;;;;;;;;5034329;27;19932;-79
2024/03/11 07:08:25;;;;;;;;;;;;;;;;;;5034192;27;19929;-76
2024/03/11 07:10:52;;;;;;;;;;;;;;;;;;5026802;28;19977;-78
2024/03/11 07:13:19;;;;;;;;;;;;;;;;;;5035316;28;19977;-77
2024/03/11 07:15:46;;;;;;;;;;;;;;;;;;5036219;27;20016;-76
2024/03/11 07:18:16;;;;;;;;;;;;;;;;;;5038060;28;20021;-76
2024/03/11 07:20:44;;;;;;;;;;;;;;;;;;5029824;28;19972;-77
2024/03/11 07:23:12;;;;;;;;;;;;;;;;;;5034019;27;19929;-77
2024/03/11 07:25:39;;;;;;;;;;;;;;;;;;5030487;27;19980;-77
2024/03/11 07:28:06;;;;;;;;;;;;;;;;;;5029517;28;19990;-80
2024/03/11 07:30:33;;;;;;;;;;;;;;;;;;5027291;28;19968;-76
2024/03/11 07:33:00;;;;;;;;;;;;;;;;;;5031663;28;20004;-76
2024/03/11 07:35:29;;;;;;;;;;;;;;;;;;5043947;27;20019;-77
2024/03/11 07:37:57;;;;;;;;;;;;;;;;;;5031497;27;19928;-75
2024/03/11 07:40:24;;;;;;;;;;;;;;;;;;5029734;27;20038;-77
2024/03/11 07:42:53;;;;;;;;;;;;;;;;;;5032891;27;20384;-77
2024/03/11 07:45:20;;;;;;;;;;;;;;;;;;5034533;27;20415;-77
2024/03/11 07:47:47;;;;;;;;;;;;;;;;;;5030277;27;19928;-74
2024/03/11 07:50:14;;;;;;;;;;;;;;;;;;5029301;28;19964;-73
2024/03/11 07:52:42;;;;;;;;;;;;;;;;;;5032468;28;20466;-73
2024/03/11 07:55:09;;;;;;;;;;;;;;;;;;5028155;28;19929;-73
2024/03/11 07:57:36;;;;;;;;;;;;;;;;;;5043443;27;20051;-73
2024/03/11 08:00:05;;;;;;;;;;;;;;;;;;5032298;27;20345;-73
2024/03/11 08:02:33;;;;;;;;;;;;;;;;;;5029436;27;19976;-73
2024/03/11 08:05:01;;;;;;;;;;;;;;;;;;5033970;28;19936;-74
2024/03/11 08:07:32;;;;;;;;;;;;;;;;;;5017018;27;19933;-74
2024/03/11 08:10:00;;;;;;;;;;;;;;;;;;5036024;27;19928;-74
2024/03/11 08:12:27;;;;;;;;;;;;;;;;;;5031932;27;20391;-74
2024/03/11 08:14:54;;;;;;;;;;;;;;;;;;5043043;27;20391;-74
2024/03/11 08:17:21;;;;;;;;;;;;;;;;;;5030694;27;19929;-74
2024/03/11 08:19:49;;;;;;;;;;;;;;;;;;5039602;27;20029;-73
2024/03/11 08:22:16;;;;;;;;;;;;;;;;;;5041109;27;19929;-73
2024/03/11 08:24:43;;;;;;;;;;;;;;;;;;5025981;27;19980;-73
2024/03/11 08:27:10;;;;;;;;;;;;;;;;;;5029335;27;19933;-73
2024/03/11 08:29:37;;;;;;;;;;;;;;;;;;5030942;27;20407;-73
2024/03/11 08:32:05;;;;;;;;;;;;;;;;;;5041667;27;20664;-73
2024/03/11 08:34:33;;;;;;;;;;;;;;;;;;5030892;27;19939;-73
2024/03/11 08:37:01;;;;;;;;;;;;;;;;;;5032074;27;19929;-73
2024/03/11 08:39:30;;;;;;;;;;;;;;;;;;5038757;27;19935;-73
2024/03/11 08:41:57;;;;;;;;;;;;;;;;;;5033956;27;20376;-74
2024/03/11 08:44:25;;;;;;;;;;;;;;;;;;5034833;27;19936;-74
2024/03/11 08:46:52;;;;;;;;;;;;;;;;;;5034777;27;19951;-75
2024/03/11 08:49:21;;;;;;;;;;;;;;;;;;5038803;27;19936;-74
2024/03/11 08:51:48;;;;;;;;;;;;;;;;;;5039809;27;20281;-73
2024/03/11 08:54:16;;;;;;;;;;;;;;;;;;5027843;27;19986;-74
2024/03/11 08:56:44;;;;;;;;;;;;;;;;;;5034927;27;20182;-74
2024/03/11 08:59:12;;;;;;;;;;;;;;;;;;5036444;27;19929;-74
2024/03/11 09:01:40;;;;;;;;;;;;;;;;;;5031166;27;20269;-74
2024/03/11 09:04:10;;;;;;;;;;;;;;;;;;5044524;27;19962;-74
2024/03/11 09:06:38;;;;;;;;;;;;;;;;;;5034456;27;19929;-74
2024/03/11 09:09:05;;;;;;;;;;;;;;;;;;5048070;27;20486;-74
2024/03/11 09:11:32;;;;;;;;;;;;;;;;;;5047170;27;20406;-73
2024/03/11 09:13:59;;;;;;;;;;;;;;;;;;5045066;27;19933;-74
2024/03/11 09:16:27;;;;;;;;;;;;;;;;;;5042427;27;19933;-74
2024/03/11 09:18:54;;;;;;;;;;;;;;;;;;5047848;27;20312;-74
2024/03/11 09:21:21;;;;;;;;;;;;;;;;;;5046354;27;20015;-73
2024/03/11 09:23:48;;;;;;;;;;;;;;;;;;5045717;27;19936;-74
2024/03/11 09:26:17;;;;;;;;;;;;;;;;;;5044597;27;20023;-73
2024/03/11 09:28:46;;;;;;;;;;;;;;;;;;5042844;27;19976;-73
2024/03/11 09:31:13;;;;;;;;;;;;;;;;;;5039207;27;19929;-73
2024/03/11 09:33:41;;;;;;;;;;;;;;;;;;5035278;27;19933;-72
2024/03/11 09:36:08;;;;;;;;;;;;;;;;;;5026789;27;19929;-73
2024/03/11 09:38:35;;;;;;;;;;;;;;;;;;5036982;27;19928;-73
2024/03/11 09:41:03;;;;;;;;;;;;;;;;;;5039501;27;20008;-73
2024/03/11 09:43:30;;;;;;;;;;;;;;;;;;5034995;27;20459;-74
2024/03/11 09:45:57;;;;;;;;;;;;;;;;;;5039835;27;19968;-73
2024/03/11 09:48:25;;;;;;;;;;;;;;;;;;5030613;27;20038;-73
2024/03/11 09:50:52;;;;;;;;;;;;;;;;;;5032212;27;19929;-73
2024/03/11 09:53:19;;;;;;;;;;;;;;;;;;5038441;27;20482;-73
2024/03/11 09:55:46;;;;;;;;;;;;;;;;;;5028466;27;19976;-73
2024/03/11 09:58:15;;;;;;;;;;;;;;;;;;5029807;27;19962;-73
2024/03/11 10:00:48;;;;;;;;;;;;;;;;;;5035439;27;19929;-73
2024/03/11 10:03:15;;;;;;;;;;;;;;;;;;5041574;27;20369;-73
2024/03/11 10:05:44;;;;;;;;;;;;;;;;;;5033868;27;19936;-73
2024/03/11 10:08:11;;;;;;;;;;;;;;;;;;5029590;27;19984;-73
2024/03/11 10:10:39;;;;;;;;;;;;;;;;;;5034028;27;21234;-73
2024/03/11 10:13:06;;;;;;;;;;;;;;;;;;5034202;27;19929;-73
2024/03/11 10:15:33;;;;;;;;;;;;;;;;;;5040716;27;19936;-73
2024/03/11 10:18:02;;;;;;;;;;;;;;;;;;5029306;27;19929;-73
2024/03/11 10:20:34;;;;;;;;;;;;;;;;;;5039517;27;20333;-73
2024/03/11 10:23:01;;;;;;;;;;;;;;;;;;5041918;27;19954;-73
2024/03/11 10:25:31;;;;;;;;;;;;;;;;;;5040005;27;19981;-73
2024/03/11 10:27:58;;;;;;;;;;;;;;;;;;5037482;27;19943;-74
2024/03/11 10:30:26;;;;;;;;;;;;;;;;;;5036221;27;19933;-74
2024/03/11 10:32:55;;;;;;;;;;;;;;;;;;5038886;27;19933;-74
2024/03/11 10:35:22;;;;;;;;;;;;;;;;;;5041334;27;20096;-74
2024/03/11 10:37:50;;;;;;;;;;;;;;;;;;5031272;27;20464;-74
2024/03/11 10:40:18;;;;;;;;;;;;;;;;;;5040504;27;19935;-73
2024/03/11 10:42:52;;;;;;;;;;;;;;;;;;5044121;27;19970;-73
2024/03/11 10:45:20;;;;;;;;;;;;;;;;;;5028441;27;20016;-73
2024/03/11 10:47:49;;;;;;;;;;;;;;;;;;5042159;27;20367;-73
2024/03/11 10:50:20;;;;;;;;;;;;;;;;;;5039880;27;19972;-73
2024/03/11 10:52:48;;;;;;;;;;;;;;;;;;5041302;27;19933;-73
2024/03/11 10:55:15;;;;;;;;;;;;;;;;;;5036091;27;19935;-74
2024/03/11 10:57:44;;;;;;;;;;;;;;;;;;5033395;27;20356;-73
2024/03/11 11:00:19;;;;;;;;;;;;;;;;;;5037268;27;20024;-74
2024/03/11 11:02:46;;;;;;;;;;;;;;;;;;5039981;27;19929;-74
2024/03/11 11:05:13;;;;;;;;;;;;;;;;;;5039059;27;19936;-73
2024/03/11 11:07:42;;;;;;;;;;;;;;;;;;5037731;27;19968;-74
2024/03/11 11:10:11;;;;;;;;;;;;;;;;;;5030253;27;19937;-73
2024/03/11 11:12:38;;;;;;;;;;;;;;;;;;5043504;27;19929;-73
2024/03/11 11:15:05;;;;;;;;;;;;;;;;;;5031834;27;19946;-74
2024/03/11 11:17:37;;;;;;;;;;;;;;;;;;5046946;27;20422;-73
2024/03/11 11:20:17;;;;;;;;;;;;;;;;;;5041505;27;19940;-73
2024/03/11 11:22:44;;;;;;;;;;;;;;;;;;5031929;27;19933;-73
2024/03/11 11:25:11;;;;;;;;;;;;;;;;;;5034506;27;19932;-73
2024/03/11 11:27:38;;;;;;;;;;;;;;;;;;5044746;27;20001;-73
2024/03/11 11:30:05;;;;;;;;;;;;;;;;;;5033553;27;19943;-73
2024/03/11 11:32:36;;;;;;;;;;;;;;;;;;5030190;27;19946;-74
2024/03/11 11:35:04;;;;;;;;;;;;;;;;;;5036428;27;19929;-73
2024/03/11 11:37:31;;;;;;;;;;;;;;;;;;5030727;27;20456;-73
2024/03/11 11:39:58;;;;;;;;;;;;;;;;;;5035305;27;20002;-74
2024/03/11 11:42:25;;;;;;;;;;;;;;;;;;5034701;27;19929;-74
2024/03/11 11:44:52;;;;;;;;;;;;;;;;;;5028510;27;19948;-73
2024/03/11 11:47:19;;;;;;;;;;;;;;;;;;5035782;27;20684;-73
2024/03/11 11:49:48;;;;;;;;;;;;;;;;;;5033734;27;19928;-74
2024/03/11 11:52:15;;;;;;;;;;;;;;;;;;5038152;27;19928;-73
2024/03/11 11:54:43;;;;;;;;;;;;;;;;;;5037845;27;19975;-72
2024/03/11 11:57:11;;;;;;;;;;;;;;;;;;5039210;27;19929;-73
2024/03/11 11:59:39;;;;;;;;;;;;;;;;;;5040581;27;19993;-73
2024/03/11 12:02:07;;;;;;;;;;;;;;;;;;5042068;27;19936;-72
2024/03/11 12:04:34;;;;;;;;;;;;;;;;;;5024293;27;19933;-73
2024/03/11 12:07:02;;;;;;;;;;;;;;;;;;5025784;27;20312;-73
2024/03/11 12:09:33;;;;;;;;;;;;;;;;;;5030051;27;20308;-73
2024/03/11 12:12:00;;;;;;;;;;;;;;;;;;5034389;27;19929;-74
2024/03/11 12:14:30;;;;;;;;;;;;;;;;;;5039215;27;19929;-74
2024/03/11 12:16:57;;;;;;;;;;;;;;;;;;5035162;27;20011;-74
2024/03/11 12:19:26;;;;;;;;;;;;;;;;;;5042571;27;20467;-73
2024/03/11 12:21:53;;;;;;;;;;;;;;;;;;5040533;27;20457;-73
2024/03/11 12:24:21;;;;;;;;;;;;;;;;;;5041323;27;19928;-73
2024/03/11 12:26:50;;;;;;;;;;;;;;;;;;5041891;27;19929;-73
2024/03/11 12:29:19;;;;;;;;;;;;;;;;;;5029105;27;19964;-73
2024/03/11 12:31:46;;;;;;;;;;;;;;;;;;5034338;27;20381;-73
2024/03/11 12:34:14;;;;;;;;;;;;;;;;;;5039697;27;19973;-73
2024/03/11 12:36:41;;;;;;;;;;;;;;;;;;5041891;27;20359;-74
2024/03/11 12:39:16;;;;;;;;;;;;;;;;;;5043575;27;20352;-73
2024/03/11 12:41:43;;;;;;;;;;;;;;;;;;5046244;27;19969;-73
2024/03/11 12:44:10;;;;;;;;;;;;;;;;;;5040838;27;20041;-73
2024/03/11 12:46:37;;;;;;;;;;;;;;;;;;5041638;27;19929;-74
2024/03/11 12:49:04;;;;;;;;;;;;;;;;;;5041717;27;20365;-73
2024/03/11 12:51:34;;;;;;;;;;;;;;;;;;5039931;27;19968;-73
2024/03/11 12:54:02;;;;;;;;;;;;;;;;;;5031186;27;20356;-73
2024/03/11 12:56:29;;;;;;;;;;;;;;;;;;5046469;27;20351;-73
2024/03/11 12:58:57;;;;;;;;;;;;;;;;;;5034237;27;19980;-73
2024/03/11 13:01:24;;;;;;;;;;;;;;;;;;5040267;27;19960;-73
2024/03/11 13:03:51;;;;;;;;;;;;;;;;;;5043904;27;19929;-73
2024/03/11 13:06:18;;;;;;;;;;;;;;;;;;5047164;27;19936;-73
2024/03/11 13:08:45;;;;;;;;;;;;;;;;;;5048114;27;20426;-73
2024/03/11 13:11:13;;;;;;;;;;;;;;;;;;5047834;27;20005;-73
2024/03/11 13:13:41;;;;;;;;;;;;;;;;;;5035299;27;19929;-73
2024/03/11 13:16:09;;;;;;;;;;;;;;;;;;5042390;27;20360;-74
2024/03/11 13:18:39;;;;;;;;;;;;;;;;;;5042111;27;20315;-73
2024/03/11 13:21:07;;;;;;;;;;;;;;;;;;5042894;27;19975;-73
2024/03/11 13:23:34;;;;;;;;;;;;;;;;;;5034655;27;20456;-73
2024/03/11 13:26:01;;;;;;;;;;;;;;;;;;5038579;27;20383;-73
2024/03/11 13:28:28;;;;;;;;;;;;;;;;;;5038866;27;19975;-73
2024/03/11 13:30:55;;;;;;;;;;;;;;;;;;5029712;27;19933;-73
2024/03/11 13:33:24;;;;;;;;;;;;;;;;;;5035133;27;19929;-73
2024/03/11 13:35:53;;;;;;;;;;;;;;;;;;5047431;27;19929;-73
2024/03/11 13:38:20;;;;;;;;;;;;;;;;;;5033912;27;19929;-73
2024/03/11 13:40:49;;;;;;;;;;;;;;;;;;5038824;27;19933;-73
2024/03/11 13:43:16;;;;;;;;;;;;;;;;;;5044713;27;19986;-73
2024/03/11 13:45:43;;;;;;;;;;;;;;;;;;5038510;27;19943;-73
2024/03/11 13:48:11;;;;;;;;;;;;;;;;;;5044501;27;19973;-73
2024/03/11 13:50:39;;;;;;;;;;;;;;;;;;5039719;27;19929;-73
2024/03/11 13:53:08;;;;;;;;;;;;;;;;;;5047336;27;19929;-72
2024/03/11 13:55:35;;;;;;;;;;;;;;;;;;5046585;27;19972;-73
2024/03/11 13:58:03;;;;;;;;;;;;;;;;;;5043205;27;20016;-72
2024/03/11 14:00:32;;;;;;;;;;;;;;;;;;5035798;27;20010;-72
2024/03/11 14:03:01;;;;;;;;;;;;;;;;;;5035612;27;19996;-71
2024/03/11 14:05:29;;;;;;;;;;;;;;;;;;5035115;27;19929;-72
2024/03/11 14:07:56;;;;;;;;;;;;;;;;;;5041290;27;19951;-72
2024/03/11 14:10:24;;;;;;;;;;;;;;;;;;5036614;27;19929;-71
2024/03/11 14:12:51;;;;;;;;;;;;;;;;;;5041429;27;20306;-72
2024/03/11 14:15:18;;;;;;;;;;;;;;;;;;5041166;27;20009;-73
2024/03/11 14:17:45;;;;;;;;;;;;;;;;;;5035466;27;20315;-74
2024/03/11 14:20:20;;;;;;;;;;;;;;;;;;5038543;27;19933;-74
2024/03/11 14:22:50;;;;;;;;;;;;;;;;;;5042428;27;19933;-74
2024/03/11 14:25:17;;;;;;;;;;;;;;;;;;5044185;27;19952;-74
2024/03/11 14:27:44;;;;;;;;;;;;;;;;;;5036793;27;19929;-73
2024/03/11 14:30:14;;;;;;;;;;;;;;;;;;5033230;27;19928;-74
2024/03/11 14:32:41;;;;;;;;;;;;;;;;;;5040164;27;19929;-73
2024/03/11 14:35:08;;;;;;;;;;;;;;;;;;5042420;27;19929;-74
2024/03/11 14:37:36;;;;;;;;;;;;;;;;;;5039263;27;19935;-74
2024/03/11 14:40:03;;;;;;;;;;;;;;;;;;5038230;27;19929;-74
2024/03/11 14:42:36;;;;;;;;;;;;;;;;;;5040003;27;19929;-73
2024/03/11 14:45:04;;;;;;;;;;;;;;;;;;5040141;27;19933;-74
2024/03/11 14:47:31;;;;;;;;;;;;;;;;;;5034732;27;19929;-74
2024/03/11 14:49:58;;;;;;;;;;;;;;;;;;5038903;27;20031;-73
2024/03/11 14:52:25;;;;;;;;;;;;;;;;;;5032737;27;19974;-73
2024/03/11 14:54:52;;;;;;;;;;;;;;;;;;5030464;27;19929;-73
2024/03/11 14:57:19;;;;;;;;;;;;;;;;;;5033716;27;20032;-73
2024/03/11 14:59:46;;;;;;;;;;;;;;;;;;5024844;27;20291;-72
2024/03/11 15:02:13;;;;;;;;;;;;;;;;;;5031468;27;19929;-72
2024/03/11 15:04:41;;;;;;;;;;;;;;;;;;5026467;27;19929;-72
2024/03/11 15:07:08;;;;;;;;;;;;;;;;;;5031154;27;19935;-72
2024/03/11 15:09:41;;;;;;;;;;;;;;;;;;5036978;28;20430;-72
2024/03/11 15:12:08;;;;;;;;;;;;;;;;;;5038470;27;19929;-72
2024/03/11 15:14:41;;;;;;;;;;;;;;;;;;5039894;27;20312;-72
2024/03/11 15:17:08;;;;;;;;;;;;;;;;;;5031582;27;19936;-73
2024/03/11 15:19:35;;;;;;;;;;;;;;;;;;5034006;27;20396;-72
2024/03/11 15:22:03;;;;;;;;;;;;;;;;;;5040002;27;19928;-72
2024/03/11 15:24:30;;;;;;;;;;;;;;;;;;5038339;27;19933;-74
2024/03/11 15:26:57;;;;;;;;;;;;;;;;;;5037689;27;20376;-72
2024/03/11 15:29:25;;;;;;;;;;;;;;;;;;5038266;27;19972;-73
2024/03/11 15:31:52;;;;;;;;;;;;;;;;;;5036142;27;20439;-73
2024/03/11 15:34:19;;;;;;;;;;;;;;;;;;5032685;28;19989;-75
2024/03/11 15:36:47;;;;;;;;;;;;;;;;;;5032862;27;19976;-73
2024/03/11 15:39:18;;;;;;;;;;;;;;;;;;5029581;27;20588;-73
2024/03/11 15:41:46;;;;;;;;;;;;;;;;;;5032690;28;19929;-73
2024/03/11 15:44:13;;;;;;;;;;;;;;;;;;5028330;28;20352;-73
2024/03/11 15:46:40;;;;;;;;;;;;;;;;;;5031441;28;20383;-74
2024/03/11 15:49:07;;;;;;;;;;;;;;;;;;5030342;28;19929;-73
2024/03/11 15:51:34;;;;;;;;;;;;;;;;;;5027902;28;19937;-73
2024/03/11 15:54:05;;;;;;;;;;;;;;;;;;5031136;28;19977;-72
2024/03/11 15:56:33;;;;;;;;;;;;;;;;;;5036053;28;20015;-74
2024/03/11 15:59:01;;;;;;;;;;;;;;;;;;5031635;27;20028;-73
2024/03/11 16:01:31;;;;;;;;;;;;;;;;;;5028381;27;19929;-73
2024/03/11 16:04:00;;;;;;;;;;;;;;;;;;5027684;27;20391;-72
2024/03/11 16:06:27;;;;;;;;;;;;;;;;;;5033269;27;19980;-74
2024/03/11 16:08:54;;;;;;;;;;;;;;;;;;5033509;27;19929;-74
2024/03/11 16:11:21;;;;;;;;;;;;;;;;;;5037102;27;19929;-74
2024/03/11 16:13:47;;;;;;;;;;;;;;;;;;5038303;27;20391;-72
2024/03/11 16:16:16;;;;;;;;;;;;;;;;;;5041486;27;19986;-73
2024/03/11 16:18:42;;;;;;;;;;;;;;;;;;5035742;27;19983;-73
2024/03/11 16:21:10;;;;;;;;;;;;;;;;;;5033724;27;19981;-74
2024/03/11 16:23:36;;;;;;;;;;;;;;;;;;5045684;27;19939;-73
2024/03/11 16:26:04;;;;;;;;;;;;;;;;;;5041986;27;19929;-73
2024/03/11 16:28:30;;;;;;;;;;;;;;;;;;5037708;27;20347;-73
2024/03/11 16:30:57;;;;;;;;;;;;;;;;;;5029913;27;20063;-73
2024/03/11 16:33:24;;;;;;;;;;;;;;;;;;5035392;27;20278;-73
2024/03/11 16:35:51;;;;;;;;;;;;;;;;;;5025828;27;19929;-73
2024/03/11 16:38:18;;;;;;;;;;;;;;;;;;5032043;27;20016;-73
2024/03/11 16:40:46;;;;;;;;;;;;;;;;;;5033870;27;19936;-73
2024/03/11 16:43:13;;;;;;;;;;;;;;;;;;5034777;27;19935;-73
2024/03/11 16:45:41;;;;;;;;;;;;;;;;;;5042761;27;19929;-74
2024/03/11 16:48:10;;;;;;;;;;;;;;;;;;5057241;27;19964;-73